sensor_id;sensor_type;location;lat;lon;timestamp;P1;durP1;ratioP1;P2;durP2;ratioP2
18532;SDS011;9396;51.510;11.934;2023-03-01T00:02:14;19.03;;;10.07;;
18532;SDS011;9396;51.510;11.934;2023-03-01T00:04:42;13.87;;;9.63;;
18532;SDS011;9396;51.510;11.934;2023-03-01T00:07:08;16.17;;;10.40;;
18532;SDS011;9396;51.510;11.934;2023-03-01T00:09:35;14.83;;;9.73;;
18532;SDS011;9396;51.510;11.934;2023-03-01T00:12:02;13.43;;;8.80;;
18532;SDS011;9396;51.510;11.934;2023-03-01T00:14:29;14.37;;;9.03;;
18532;SDS011;9396;51.510;11.934;2023-03-01T00:16:56;15.40;;;9.07;;
18532;SDS011;9396;51.510;11.934;2023-03-01T00:19:23;16.70;;;8.90;;
18532;SDS011;9396;51.510;11.934;2023-03-01T00:21:51;15.53;;;9.30;;
18532;SDS011;9396;51.510;11.934;2023-03-01T00:24:18;19.13;;;9.67;;
18532;SDS011;9396;51.510;11.934;2023-03-01T00:26:44;13.30;;;9.20;;
18532;SDS011;9396;51.510;11.934;2023-03-01T00:29:11;18.27;;;10.13;;
18532;SDS011;9396;51.510;11.934;2023-03-01T00:31:38;15.23;;;9.43;;
18532;SDS011;9396;51.510;11.934;2023-03-01T00:34:05;15.10;;;9.10;;
18532;SDS011;9396;51.510;11.934;2023-03-01T00:36:33;14.00;;;8.77;;
18532;SDS011;9396;51.510;11.934;2023-03-01T00:39:03;13.33;;;9.27;;
18532;SDS011;9396;51.510;11.934;2023-03-01T00:41:30;14.83;;;8.87;;
18532;SDS011;9396;51.510;11.934;2023-03-01T00:43:58;13.00;;;8.83;;
18532;SDS011;9396;51.510;11.934;2023-03-01T00:46:25;14.70;;;8.90;;
18532;SDS011;9396;51.510;11.934;2023-03-01T00:48:55;16.50;;;9.47;;
18532;SDS011;9396;51.510;11.934;2023-03-01T00:51:23;13.47;;;8.77;;
18532;SDS011;9396;51.510;11.934;2023-03-01T00:53:51;13.47;;;8.87;;
18532;SDS011;9396;51.510;11.934;2023-03-01T00:56:20;12.97;;;8.60;;
18532;SDS011;9396;51.510;11.934;2023-03-01T00:58:47;12.80;;;8.53;;
18532;SDS011;9396;51.510;11.934;2023-03-01T01:01:15;14.07;;;9.13;;
18532;SDS011;9396;51.510;11.934;2023-03-01T01:03:44;15.67;;;9.57;;
18532;SDS011;9396;51.510;11.934;2023-03-01T01:06:13;13.23;;;8.70;;
18532;SDS011;9396;51.510;11.934;2023-03-01T01:08:41;14.07;;;8.80;;
18532;SDS011;9396;51.510;11.934;2023-03-01T01:11:08;11.80;;;8.30;;
18532;SDS011;9396;51.510;11.934;2023-03-01T01:13:36;15.47;;;9.30;;
18532;SDS011;9396;51.510;11.934;2023-03-01T01:16:03;13.20;;;8.00;;
18532;SDS011;9396;51.510;11.934;2023-03-01T01:18:31;12.77;;;7.83;;
18532;SDS011;9396;51.510;11.934;2023-03-01T01:21:02;12.43;;;8.10;;
18532;SDS011;9396;51.510;11.934;2023-03-01T01:23:30;12.20;;;7.73;;
18532;SDS011;9396;51.510;11.934;2023-03-01T01:25:57;14.13;;;7.90;;
18532;SDS011;9396;51.510;11.934;2023-03-01T01:28:23;12.10;;;8.13;;
18532;SDS011;9396;51.510;11.934;2023-03-01T01:30:51;13.07;;;8.33;;
18532;SDS011;9396;51.510;11.934;2023-03-01T01:33:18;14.27;;;8.93;;
18532;SDS011;9396;51.510;11.934;2023-03-01T01:35:45;13.50;;;8.80;;
18532;SDS011;9396;51.510;11.934;2023-03-01T01:38:11;14.77;;;8.53;;
18532;SDS011;9396;51.510;11.934;2023-03-01T01:40:42;13.80;;;8.73;;
18532;SDS011;9396;51.510;11.934;2023-03-01T01:43:12;12.57;;;8.93;;
18532;SDS011;9396;51.510;11.934;2023-03-01T01:45:45;14.73;;;8.93;;
18532;SDS011;9396;51.510;11.934;2023-03-01T01:48:14;14.97;;;9.17;;
18532;SDS011;9396;51.510;11.934;2023-03-01T01:50:44;16.17;;;9.90;;
18532;SDS011;9396;51.510;11.934;2023-03-01T01:53:14;12.97;;;8.53;;
18532;SDS011;9396;51.510;11.934;2023-03-01T01:55:46;11.53;;;7.80;;
18532;SDS011;9396;51.510;11.934;2023-03-01T01:58:18;16.97;;;9.20;;
18532;SDS011;9396;51.510;11.934;2023-03-01T02:00:47;15.43;;;9.27;;
18532;SDS011;9396;51.510;11.934;2023-03-01T02:03:17;14.83;;;9.63;;
18532;SDS011;9396;51.510;11.934;2023-03-01T02:05:47;16.47;;;10.13;;
18532;SDS011;9396;51.510;11.934;2023-03-01T02:08:20;16.37;;;9.57;;
18532;SDS011;9396;51.510;11.934;2023-03-01T02:10:49;14.77;;;9.17;;
18532;SDS011;9396;51.510;11.934;2023-03-01T02:13:17;11.93;;;7.77;;
18532;SDS011;9396;51.510;11.934;2023-03-01T02:15:43;12.70;;;8.50;;
18532;SDS011;9396;51.510;11.934;2023-03-01T02:18:11;12.47;;;8.70;;
18532;SDS011;9396;51.510;11.934;2023-03-01T02:20:43;13.57;;;9.07;;
18532;SDS011;9396;51.510;11.934;2023-03-01T02:23:22;13.53;;;9.30;;
18532;SDS011;9396;51.510;11.934;2023-03-01T02:25:51;14.07;;;9.00;;
18532;SDS011;9396;51.510;11.934;2023-03-01T02:28:26;20.67;;;11.33;;
18532;SDS011;9396;51.510;11.934;2023-03-01T02:30:56;18.57;;;10.60;;
18532;SDS011;9396;51.510;11.934;2023-03-01T02:33:40;18.27;;;10.90;;
18532;SDS011;9396;51.510;11.934;2023-03-01T02:36:09;17.53;;;9.43;;
18532;SDS011;9396;51.510;11.934;2023-03-01T02:38:40;14.87;;;8.87;;
18532;SDS011;9396;51.510;11.934;2023-03-01T02:41:07;15.00;;;9.27;;
18532;SDS011;9396;51.510;11.934;2023-03-01T02:43:38;14.93;;;9.17;;
18532;SDS011;9396;51.510;11.934;2023-03-01T02:46:06;13.73;;;9.07;;
18532;SDS011;9396;51.510;11.934;2023-03-01T02:48:41;17.33;;;9.53;;
18532;SDS011;9396;51.510;11.934;2023-03-01T02:51:11;14.30;;;9.67;;
18532;SDS011;9396;51.510;11.934;2023-03-01T02:53:56;16.40;;;9.83;;
18532;SDS011;9396;51.510;11.934;2023-03-01T02:56:33;13.70;;;8.67;;
18532;SDS011;9396;51.510;11.934;2023-03-01T02:59:02;15.33;;;9.00;;
18532;SDS011;9396;51.510;11.934;2023-03-01T03:01:29;13.17;;;9.10;;
18532;SDS011;9396;51.510;11.934;2023-03-01T03:04:02;12.90;;;8.77;;
18532;SDS011;9396;51.510;11.934;2023-03-01T03:06:29;12.97;;;8.40;;
18532;SDS011;9396;51.510;11.934;2023-03-01T03:08:56;14.27;;;9.10;;
18532;SDS011;9396;51.510;11.934;2023-03-01T03:11:22;13.80;;;8.43;;
18532;SDS011;9396;51.510;11.934;2023-03-01T03:13:49;13.63;;;8.93;;
18532;SDS011;9396;51.510;11.934;2023-03-01T03:16:18;14.23;;;9.13;;
18532;SDS011;9396;51.510;11.934;2023-03-01T03:18:46;15.07;;;9.47;;
18532;SDS011;9396;51.510;11.934;2023-03-01T03:21:13;15.77;;;9.27;;
18532;SDS011;9396;51.510;11.934;2023-03-01T03:23:41;13.63;;;8.77;;
18532;SDS011;9396;51.510;11.934;2023-03-01T03:26:08;13.47;;;8.40;;
18532;SDS011;9396;51.510;11.934;2023-03-01T03:28:38;13.57;;;9.13;;
18532;SDS011;9396;51.510;11.934;2023-03-01T03:31:05;14.23;;;9.13;;
18532;SDS011;9396;51.510;11.934;2023-03-01T03:33:34;12.43;;;8.67;;
18532;SDS011;9396;51.510;11.934;2023-03-01T03:36:01;14.70;;;8.83;;
18532;SDS011;9396;51.510;11.934;2023-03-01T03:38:27;14.93;;;8.93;;
18532;SDS011;9396;51.510;11.934;2023-03-01T03:40:59;12.20;;;8.27;;
18532;SDS011;9396;51.510;11.934;2023-03-01T03:43:27;13.43;;;8.43;;
18532;SDS011;9396;51.510;11.934;2023-03-01T03:45:54;14.23;;;8.73;;
18532;SDS011;9396;51.510;11.934;2023-03-01T03:48:22;11.63;;;8.10;;
18532;SDS011;9396;51.510;11.934;2023-03-01T03:50:51;14.33;;;8.20;;
18532;SDS011;9396;51.510;11.934;2023-03-01T03:53:20;12.90;;;8.20;;
18532;SDS011;9396;51.510;11.934;2023-03-01T03:55:47;11.43;;;7.97;;
18532;SDS011;9396;51.510;11.934;2023-03-01T03:58:17;14.07;;;8.13;;
18532;SDS011;9396;51.510;11.934;2023-03-01T04:00:45;11.20;;;7.57;;
18532;SDS011;9396;51.510;11.934;2023-03-01T04:03:13;12.30;;;7.30;;
18532;SDS011;9396;51.510;11.934;2023-03-01T04:05:41;13.07;;;8.10;;
18532;SDS011;9396;51.510;11.934;2023-03-01T04:08:10;10.60;;;7.20;;
18532;SDS011;9396;51.510;11.934;2023-03-01T04:10:38;10.97;;;7.23;;
18532;SDS011;9396;51.510;11.934;2023-03-01T04:13:07;10.67;;;7.27;;
18532;SDS011;9396;51.510;11.934;2023-03-01T04:15:37;13.33;;;7.73;;
18532;SDS011;9396;51.510;11.934;2023-03-01T04:18:03;10.33;;;7.03;;
18532;SDS011;9396;51.510;11.934;2023-03-01T04:20:32;12.40;;;7.50;;
18532;SDS011;9396;51.510;11.934;2023-03-01T04:23:00;13.80;;;8.00;;
18532;SDS011;9396;51.510;11.934;2023-03-01T04:25:37;12.57;;;7.77;;
18532;SDS011;9396;51.510;11.934;2023-03-01T04:28:05;11.20;;;7.07;;
18532;SDS011;9396;51.510;11.934;2023-03-01T04:30:32;12.43;;;7.43;;
18532;SDS011;9396;51.510;11.934;2023-03-01T04:33:01;10.67;;;7.03;;
18532;SDS011;9396;51.510;11.934;2023-03-01T04:35:28;10.93;;;6.93;;
18532;SDS011;9396;51.510;11.934;2023-03-01T04:37:55;12.77;;;7.77;;
18532;SDS011;9396;51.510;11.934;2023-03-01T04:40:21;13.33;;;7.80;;
18532;SDS011;9396;51.510;11.934;2023-03-01T04:42:49;10.53;;;7.50;;
18532;SDS011;9396;51.510;11.934;2023-03-01T04:45:16;9.80;;;7.50;;
18532;SDS011;9396;51.510;11.934;2023-03-01T04:47:43;10.93;;;7.20;;
18532;SDS011;9396;51.510;11.934;2023-03-01T04:50:12;10.70;;;7.37;;
18532;SDS011;9396;51.510;11.934;2023-03-01T04:52:41;11.07;;;7.43;;
18532;SDS011;9396;51.510;11.934;2023-03-01T04:55:08;11.67;;;7.60;;
18532;SDS011;9396;51.510;11.934;2023-03-01T04:57:36;11.67;;;7.13;;
18532;SDS011;9396;51.510;11.934;2023-03-01T05:00:04;13.20;;;7.30;;
18532;SDS011;9396;51.510;11.934;2023-03-01T05:02:45;12.60;;;7.67;;
18532;SDS011;9396;51.510;11.934;2023-03-01T05:05:14;10.47;;;7.43;;
18532;SDS011;9396;51.510;11.934;2023-03-01T05:07:40;11.77;;;7.13;;
18532;SDS011;9396;51.510;11.934;2023-03-01T05:10:08;9.77;;;7.13;;
18532;SDS011;9396;51.510;11.934;2023-03-01T05:12:35;11.60;;;7.23;;
18532;SDS011;9396;51.510;11.934;2023-03-01T05:15:05;12.17;;;7.67;;
18532;SDS011;9396;51.510;11.934;2023-03-01T05:17:33;11.03;;;7.57;;
18532;SDS011;9396;51.510;11.934;2023-03-01T05:20:00;12.93;;;7.10;;
18532;SDS011;9396;51.510;11.934;2023-03-01T05:22:31;10.73;;;7.00;;
18532;SDS011;9396;51.510;11.934;2023-03-01T05:24:57;13.00;;;6.83;;
18532;SDS011;9396;51.510;11.934;2023-03-01T05:27:24;12.70;;;7.67;;
18532;SDS011;9396;51.510;11.934;2023-03-01T05:29:51;13.27;;;7.77;;
18532;SDS011;9396;51.510;11.934;2023-03-01T05:32:19;14.67;;;7.47;;
18532;SDS011;9396;51.510;11.934;2023-03-01T05:34:46;15.07;;;7.33;;
18532;SDS011;9396;51.510;11.934;2023-03-01T05:37:12;12.17;;;7.60;;
18532;SDS011;9396;51.510;11.934;2023-03-01T05:39:39;13.00;;;6.77;;
18532;SDS011;9396;51.510;11.934;2023-03-01T05:42:09;13.20;;;7.10;;
18532;SDS011;9396;51.510;11.934;2023-03-01T05:44:37;11.43;;;6.90;;
18532;SDS011;9396;51.510;11.934;2023-03-01T05:47:04;12.70;;;7.67;;
18532;SDS011;9396;51.510;11.934;2023-03-01T05:49:32;11.60;;;7.40;;
18532;SDS011;9396;51.510;11.934;2023-03-01T05:51:59;14.70;;;6.73;;
18532;SDS011;9396;51.510;11.934;2023-03-01T05:54:26;10.23;;;6.90;;
18532;SDS011;9396;51.510;11.934;2023-03-01T05:56:53;14.33;;;7.00;;
18532;SDS011;9396;51.510;11.934;2023-03-01T05:59:19;13.83;;;7.50;;
18532;SDS011;9396;51.510;11.934;2023-03-01T06:01:46;11.57;;;6.97;;
18532;SDS011;9396;51.510;11.934;2023-03-01T06:04:13;12.53;;;7.13;;
18532;SDS011;9396;51.510;11.934;2023-03-01T06:06:41;12.97;;;7.60;;
18532;SDS011;9396;51.510;11.934;2023-03-01T06:09:07;11.70;;;7.47;;
18532;SDS011;9396;51.510;11.934;2023-03-01T06:11:35;12.27;;;7.47;;
18532;SDS011;9396;51.510;11.934;2023-03-01T06:14:02;12.33;;;7.13;;
18532;SDS011;9396;51.510;11.934;2023-03-01T06:16:29;10.27;;;7.20;;
18532;SDS011;9396;51.510;11.934;2023-03-01T06:18:55;12.60;;;7.40;;
18532;SDS011;9396;51.510;11.934;2023-03-01T06:21:22;12.53;;;7.47;;
18532;SDS011;9396;51.510;11.934;2023-03-01T06:23:50;14.67;;;7.60;;
18532;SDS011;9396;51.510;11.934;2023-03-01T06:26:16;12.90;;;7.83;;
18532;SDS011;9396;51.510;11.934;2023-03-01T06:28:43;11.80;;;7.63;;
18532;SDS011;9396;51.510;11.934;2023-03-01T06:31:11;14.30;;;7.70;;
18532;SDS011;9396;51.510;11.934;2023-03-01T06:33:37;15.60;;;8.37;;
18532;SDS011;9396;51.510;11.934;2023-03-01T06:36:04;12.17;;;8.00;;
18532;SDS011;9396;51.510;11.934;2023-03-01T06:38:32;17.07;;;8.17;;
18532;SDS011;9396;51.510;11.934;2023-03-01T06:41:00;13.10;;;8.30;;
18532;SDS011;9396;51.510;11.934;2023-03-01T06:43:27;14.40;;;8.47;;
18532;SDS011;9396;51.510;11.934;2023-03-01T06:45:54;16.23;;;8.43;;
18532;SDS011;9396;51.510;11.934;2023-03-01T06:48:20;13.63;;;8.13;;
18532;SDS011;9396;51.510;11.934;2023-03-01T06:50:47;13.87;;;8.03;;
18532;SDS011;9396;51.510;11.934;2023-03-01T06:53:14;16.47;;;8.63;;
18532;SDS011;9396;51.510;11.934;2023-03-01T06:55:40;16.80;;;8.60;;
18532;SDS011;9396;51.510;11.934;2023-03-01T06:58:09;15.57;;;8.70;;
18532;SDS011;9396;51.510;11.934;2023-03-01T07:00:36;13.03;;;8.10;;
18532;SDS011;9396;51.510;11.934;2023-03-01T07:03:05;17.40;;;9.13;;
18532;SDS011;9396;51.510;11.934;2023-03-01T07:05:32;14.27;;;8.73;;
18532;SDS011;9396;51.510;11.934;2023-03-01T07:07:59;17.63;;;9.60;;
18532;SDS011;9396;51.510;11.934;2023-03-01T07:10:26;15.43;;;9.13;;
18532;SDS011;9396;51.510;11.934;2023-03-01T07:12:54;15.43;;;8.53;;
18532;SDS011;9396;51.510;11.934;2023-03-01T07:15:22;17.83;;;9.00;;
18532;SDS011;9396;51.510;11.934;2023-03-01T07:17:49;15.03;;;9.73;;
18532;SDS011;9396;51.510;11.934;2023-03-01T07:20:16;13.77;;;10.00;;
18532;SDS011;9396;51.510;11.934;2023-03-01T07:22:43;18.90;;;9.87;;
18532;SDS011;9396;51.510;11.934;2023-03-01T07:25:10;20.70;;;9.97;;
18532;SDS011;9396;51.510;11.934;2023-03-01T07:27:37;14.97;;;9.47;;
18532;SDS011;9396;51.510;11.934;2023-03-01T07:30:04;16.17;;;9.30;;
18532;SDS011;9396;51.510;11.934;2023-03-01T07:32:33;20.17;;;9.97;;
18532;SDS011;9396;51.510;11.934;2023-03-01T07:34:59;17.20;;;9.87;;
18532;SDS011;9396;51.510;11.934;2023-03-01T07:37:26;17.83;;;9.47;;
18532;SDS011;9396;51.510;11.934;2023-03-01T07:39:53;17.47;;;9.70;;
18532;SDS011;9396;51.510;11.934;2023-03-01T07:42:19;18.33;;;9.57;;
18532;SDS011;9396;51.510;11.934;2023-03-01T07:44:46;15.23;;;9.73;;
18532;SDS011;9396;51.510;11.934;2023-03-01T07:47:13;20.47;;;9.80;;
18532;SDS011;9396;51.510;11.934;2023-03-01T07:49:41;18.67;;;10.20;;
18532;SDS011;9396;51.510;11.934;2023-03-01T07:52:09;19.40;;;9.23;;
18532;SDS011;9396;51.510;11.934;2023-03-01T07:54:37;16.03;;;10.07;;
18532;SDS011;9396;51.510;11.934;2023-03-01T07:57:04;15.40;;;9.50;;
18532;SDS011;9396;51.510;11.934;2023-03-01T07:59:31;16.80;;;9.93;;
18532;SDS011;9396;51.510;11.934;2023-03-01T08:01:58;16.00;;;9.03;;
18532;SDS011;9396;51.510;11.934;2023-03-01T08:04:25;16.17;;;9.40;;
18532;SDS011;9396;51.510;11.934;2023-03-01T08:06:53;19.57;;;10.00;;
18532;SDS011;9396;51.510;11.934;2023-03-01T08:09:20;16.77;;;9.90;;
18532;SDS011;9396;51.510;11.934;2023-03-01T08:11:47;21.27;;;9.70;;
18532;SDS011;9396;51.510;11.934;2023-03-01T08:14:14;17.17;;;9.50;;
18532;SDS011;9396;51.510;11.934;2023-03-01T08:16:41;21.07;;;9.90;;
18532;SDS011;9396;51.510;11.934;2023-03-01T08:19:07;21.77;;;9.43;;
18532;SDS011;9396;51.510;11.934;2023-03-01T08:21:36;18.17;;;9.63;;
18532;SDS011;9396;51.510;11.934;2023-03-01T08:24:04;16.13;;;9.37;;
18532;SDS011;9396;51.510;11.934;2023-03-01T08:26:32;12.03;;;8.40;;
18532;SDS011;9396;51.510;11.934;2023-03-01T08:28:59;17.57;;;8.63;;
18532;SDS011;9396;51.510;11.934;2023-03-01T08:31:28;16.10;;;8.60;;
18532;SDS011;9396;51.510;11.934;2023-03-01T08:33:57;14.80;;;8.60;;
18532;SDS011;9396;51.510;11.934;2023-03-01T08:36:25;15.10;;;7.97;;
18532;SDS011;9396;51.510;11.934;2023-03-01T08:38:53;14.27;;;8.27;;
18532;SDS011;9396;51.510;11.934;2023-03-01T08:41:21;11.97;;;8.00;;
18532;SDS011;9396;51.510;11.934;2023-03-01T08:43:48;14.20;;;8.93;;
18532;SDS011;9396;51.510;11.934;2023-03-01T08:46:14;14.33;;;8.20;;
18532;SDS011;9396;51.510;11.934;2023-03-01T08:48:41;14.60;;;8.23;;
18532;SDS011;9396;51.510;11.934;2023-03-01T08:51:08;18.47;;;8.37;;
18532;SDS011;9396;51.510;11.934;2023-03-01T08:53:36;17.53;;;8.90;;
18532;SDS011;9396;51.510;11.934;2023-03-01T08:56:03;13.93;;;8.27;;
18532;SDS011;9396;51.510;11.934;2023-03-01T08:58:31;16.10;;;8.17;;
18532;SDS011;9396;51.510;11.934;2023-03-01T09:00:59;14.63;;;8.47;;
18532;SDS011;9396;51.510;11.934;2023-03-01T09:03:26;12.93;;;8.70;;
18532;SDS011;9396;51.510;11.934;2023-03-01T09:05:53;16.80;;;8.80;;
18532;SDS011;9396;51.510;11.934;2023-03-01T09:08:25;20.77;;;8.75;;
18532;SDS011;9396;51.510;11.934;2023-03-01T09:10:52;16.63;;;9.33;;
18532;SDS011;9396;51.510;11.934;2023-03-01T09:13:19;14.00;;;8.27;;
18532;SDS011;9396;51.510;11.934;2023-03-01T09:15:47;13.17;;;8.47;;
18532;SDS011;9396;51.510;11.934;2023-03-01T09:18:13;14.77;;;8.03;;
18532;SDS011;9396;51.510;11.934;2023-03-01T09:20:40;14.80;;;8.63;;
18532;SDS011;9396;51.510;11.934;2023-03-01T09:23:07;14.03;;;8.53;;
18532;SDS011;9396;51.510;11.934;2023-03-01T09:25:34;9.90;;;7.07;;
18532;SDS011;9396;51.510;11.934;2023-03-01T09:28:00;13.90;;;8.70;;
18532;SDS011;9396;51.510;11.934;2023-03-01T09:30:27;12.37;;;7.90;;
18532;SDS011;9396;51.510;11.934;2023-03-01T09:32:55;11.50;;;7.43;;
18532;SDS011;9396;51.510;11.934;2023-03-01T09:35:22;13.10;;;8.27;;
18532;SDS011;9396;51.510;11.934;2023-03-01T09:37:49;15.73;;;8.90;;
18532;SDS011;9396;51.510;11.934;2023-03-01T09:40:16;12.17;;;7.60;;
18532;SDS011;9396;51.510;11.934;2023-03-01T09:42:47;14.90;;;8.80;;
18532;SDS011;9396;51.510;11.934;2023-03-01T09:45:21;14.13;;;8.03;;
18532;SDS011;9396;51.510;11.934;2023-03-01T09:47:54;14.47;;;8.47;;
18532;SDS011;9396;51.510;11.934;2023-03-01T09:50:22;10.90;;;7.67;;
18532;SDS011;9396;51.510;11.934;2023-03-01T09:52:54;18.70;;;8.40;;
18532;SDS011;9396;51.510;11.934;2023-03-01T09:55:29;13.13;;;8.27;;
18532;SDS011;9396;51.510;11.934;2023-03-01T09:57:58;16.27;;;8.60;;
18532;SDS011;9396;51.510;11.934;2023-03-01T10:00:33;11.40;;;7.80;;
18532;SDS011;9396;51.510;11.934;2023-03-01T10:03:11;16.40;;;7.93;;
18532;SDS011;9396;51.510;11.934;2023-03-01T10:05:43;14.27;;;8.40;;
18532;SDS011;9396;51.510;11.934;2023-03-01T10:08:30;16.33;;;8.63;;
18532;SDS011;9396;51.510;11.934;2023-03-01T10:11:03;13.57;;;7.77;;
18532;SDS011;9396;51.510;11.934;2023-03-01T10:13:33;13.03;;;8.67;;
18532;SDS011;9396;51.510;11.934;2023-03-01T10:16:10;13.83;;;8.70;;
18532;SDS011;9396;51.510;11.934;2023-03-01T10:18:52;13.97;;;8.33;;
18532;SDS011;9396;51.510;11.934;2023-03-01T10:21:23;14.57;;;8.80;;
18532;SDS011;9396;51.510;11.934;2023-03-01T10:23:50;14.63;;;8.70;;
18532;SDS011;9396;51.510;11.934;2023-03-01T10:26:30;12.20;;;8.07;;
18532;SDS011;9396;51.510;11.934;2023-03-01T10:29:06;13.30;;;7.67;;
18532;SDS011;9396;51.510;11.934;2023-03-01T10:31:39;14.83;;;8.13;;
18532;SDS011;9396;51.510;11.934;2023-03-01T10:34:14;13.70;;;8.23;;
18532;SDS011;9396;51.510;11.934;2023-03-01T10:36:43;12.70;;;8.33;;
18532;SDS011;9396;51.510;11.934;2023-03-01T10:39:14;11.03;;;7.67;;
18532;SDS011;9396;51.510;11.934;2023-03-01T10:41:53;13.00;;;7.57;;
18532;SDS011;9396;51.510;11.934;2023-03-01T10:44:36;17.33;;;9.43;;
18532;SDS011;9396;51.510;11.934;2023-03-01T10:47:08;14.07;;;8.30;;
18532;SDS011;9396;51.510;11.934;2023-03-01T10:49:42;13.97;;;8.23;;
18532;SDS011;9396;51.510;11.934;2023-03-01T10:52:22;19.50;;;8.73;;
18532;SDS011;9396;51.510;11.934;2023-03-01T10:54:51;13.33;;;8.90;;
18532;SDS011;9396;51.510;11.934;2023-03-01T10:57:31;15.23;;;9.13;;
18532;SDS011;9396;51.510;11.934;2023-03-01T11:00:16;17.23;;;9.60;;
18532;SDS011;9396;51.510;11.934;2023-03-01T11:02:48;19.43;;;9.00;;
18532;SDS011;9396;51.510;11.934;2023-03-01T11:05:19;13.80;;;7.57;;
18532;SDS011;9396;51.510;11.934;2023-03-01T11:07:49;11.60;;;7.17;;
18532;SDS011;9396;51.510;11.934;2023-03-01T11:10:19;12.57;;;7.73;;
18532;SDS011;9396;51.510;11.934;2023-03-01T11:12:47;15.03;;;7.97;;
18532;SDS011;9396;51.510;11.934;2023-03-01T11:15:21;12.87;;;8.37;;
18532;SDS011;9396;51.510;11.934;2023-03-01T11:17:51;12.40;;;7.77;;
18532;SDS011;9396;51.510;11.934;2023-03-01T11:20:23;13.40;;;7.47;;
18532;SDS011;9396;51.510;11.934;2023-03-01T11:22:53;10.67;;;6.20;;
18532;SDS011;9396;51.510;11.934;2023-03-01T11:25:23;10.80;;;6.93;;
18532;SDS011;9396;51.510;11.934;2023-03-01T11:27:51;11.93;;;7.13;;
18532;SDS011;9396;51.510;11.934;2023-03-01T11:30:22;11.03;;;6.50;;
18532;SDS011;9396;51.510;11.934;2023-03-01T11:32:52;13.13;;;6.77;;
18532;SDS011;9396;51.510;11.934;2023-03-01T11:35:28;10.57;;;6.33;;
18532;SDS011;9396;51.510;11.934;2023-03-01T11:37:59;10.80;;;6.20;;
18532;SDS011;9396;51.510;11.934;2023-03-01T11:40:39;14.23;;;7.43;;
18532;SDS011;9396;51.510;11.934;2023-03-01T11:43:12;14.27;;;6.30;;
18532;SDS011;9396;51.510;11.934;2023-03-01T11:45:54;11.70;;;6.70;;
18532;SDS011;9396;51.510;11.934;2023-03-01T11:48:57;14.73;;;6.50;;
18532;SDS011;9396;51.510;11.934;2023-03-01T11:51:41;8.43;;;5.83;;
18532;SDS011;9396;51.510;11.934;2023-03-01T11:54:18;15.60;;;7.70;;
18532;SDS011;9396;51.510;11.934;2023-03-01T11:56:55;9.90;;;6.53;;
18532;SDS011;9396;51.510;11.934;2023-03-01T12:05:41;10.23;;;5.00;;
18532;SDS011;9396;51.510;11.934;2023-03-01T12:08:25;7.67;;;4.83;;
18532;SDS011;9396;51.510;11.934;2023-03-01T12:11:01;6.87;;;4.83;;
18532;SDS011;9396;51.510;11.934;2023-03-01T12:16:28;10.70;;;5.07;;
18532;SDS011;9396;51.510;11.934;2023-03-01T12:19:08;12.67;;;5.20;;
18532;SDS011;9396;51.510;11.934;2023-03-01T12:21:53;6.80;;;5.00;;
18532;SDS011;9396;51.510;11.934;2023-03-01T12:24:35;13.73;;;5.50;;
18532;SDS011;9396;51.510;11.934;2023-03-01T12:27:20;8.73;;;4.40;;
18532;SDS011;9396;51.510;11.934;2023-03-01T12:30:05;7.83;;;4.40;;
18532;SDS011;9396;51.510;11.934;2023-03-01T12:32:47;7.77;;;4.97;;
18532;SDS011;9396;51.510;11.934;2023-03-01T12:35:33;10.67;;;4.83;;
18532;SDS011;9396;51.510;11.934;2023-03-01T12:38:14;8.33;;;4.47;;
18532;SDS011;9396;51.510;11.934;2023-03-01T12:41:04;7.17;;;4.10;;
18532;SDS011;9396;51.510;11.934;2023-03-01T12:43:44;6.67;;;4.40;;
18532;SDS011;9396;51.510;11.934;2023-03-01T12:46:25;8.87;;;5.27;;
18532;SDS011;9396;51.510;11.934;2023-03-01T12:49:03;8.37;;;4.67;;
18532;SDS011;9396;51.510;11.934;2023-03-01T12:51:36;9.07;;;4.70;;
18532;SDS011;9396;51.510;11.934;2023-03-01T12:54:05;6.33;;;4.47;;
18532;SDS011;9396;51.510;11.934;2023-03-01T12:56:41;6.80;;;4.27;;
18532;SDS011;9396;51.510;11.934;2023-03-01T12:59:11;7.43;;;4.70;;
18532;SDS011;9396;51.510;11.934;2023-03-01T13:01:45;9.60;;;4.43;;
18532;SDS011;9396;51.510;11.934;2023-03-01T13:04:20;10.07;;;5.03;;
18532;SDS011;9396;51.510;11.934;2023-03-01T13:06:58;7.17;;;3.90;;
18532;SDS011;9396;51.510;11.934;2023-03-01T13:09:33;8.60;;;4.27;;
18532;SDS011;9396;51.510;11.934;2023-03-01T13:15:19;6.63;;;4.13;;
18532;SDS011;9396;51.510;11.934;2023-03-01T13:17:51;7.90;;;4.17;;
18532;SDS011;9396;51.510;11.934;2023-03-01T13:20:20;9.07;;;4.83;;
18532;SDS011;9396;51.510;11.934;2023-03-01T13:22:49;6.77;;;3.93;;
18532;SDS011;9396;51.510;11.934;2023-03-01T13:25:28;8.13;;;4.53;;
18532;SDS011;9396;51.510;11.934;2023-03-01T13:28:32;7.53;;;3.97;;
18532;SDS011;9396;51.510;11.934;2023-03-01T13:37:24;7.53;;;4.00;;
18532;SDS011;9396;51.510;11.934;2023-03-01T13:39:55;9.20;;;4.63;;
18532;SDS011;9396;51.510;11.934;2023-03-01T13:42:31;7.30;;;4.23;;
18532;SDS011;9396;51.510;11.934;2023-03-01T13:45:04;9.63;;;3.83;;
18532;SDS011;9396;51.510;11.934;2023-03-01T13:47:41;9.53;;;3.67;;
18532;SDS011;9396;51.510;11.934;2023-03-01T13:50:16;7.57;;;3.97;;
18532;SDS011;9396;51.510;11.934;2023-03-01T13:52:48;7.57;;;3.83;;
18532;SDS011;9396;51.510;11.934;2023-03-01T13:55:19;7.13;;;4.53;;
18532;SDS011;9396;51.510;11.934;2023-03-01T13:57:49;6.80;;;3.93;;
18532;SDS011;9396;51.510;11.934;2023-03-01T14:00:29;6.70;;;3.60;;
18532;SDS011;9396;51.510;11.934;2023-03-01T14:03:00;7.53;;;3.87;;
18532;SDS011;9396;51.510;11.934;2023-03-01T14:05:30;4.83;;;3.03;;
18532;SDS011;9396;51.510;11.934;2023-03-01T14:07:56;8.50;;;3.87;;
18532;SDS011;9396;51.510;11.934;2023-03-01T14:10:24;4.60;;;3.63;;
18532;SDS011;9396;51.510;11.934;2023-03-01T14:12:59;7.70;;;3.60;;
18532;SDS011;9396;51.510;11.934;2023-03-01T14:15:35;6.60;;;3.70;;
18532;SDS011;9396;51.510;11.934;2023-03-01T14:18:08;7.53;;;3.77;;
18532;SDS011;9396;51.510;11.934;2023-03-01T14:20:42;6.07;;;3.60;;
18532;SDS011;9396;51.510;11.934;2023-03-01T14:23:11;5.67;;;3.50;;
18532;SDS011;9396;51.510;11.934;2023-03-01T14:25:45;9.03;;;4.20;;
18532;SDS011;9396;51.510;11.934;2023-03-01T14:28:14;6.23;;;3.87;;
18532;SDS011;9396;51.510;11.934;2023-03-01T14:30:43;8.17;;;3.73;;
18532;SDS011;9396;51.510;11.934;2023-03-01T14:33:18;6.10;;;3.70;;
18532;SDS011;9396;51.510;11.934;2023-03-01T14:35:55;6.57;;;3.87;;
18532;SDS011;9396;51.510;11.934;2023-03-01T14:38:28;6.93;;;3.90;;
18532;SDS011;9396;51.510;11.934;2023-03-01T14:40:56;8.30;;;3.60;;
18532;SDS011;9396;51.510;11.934;2023-03-01T14:43:26;6.80;;;3.30;;
18532;SDS011;9396;51.510;11.934;2023-03-01T14:45:55;7.00;;;3.73;;
18532;SDS011;9396;51.510;11.934;2023-03-01T14:48:22;7.27;;;4.13;;
18532;SDS011;9396;51.510;11.934;2023-03-01T14:50:49;5.67;;;3.60;;
18532;SDS011;9396;51.510;11.934;2023-03-01T14:53:18;5.27;;;3.33;;
18532;SDS011;9396;51.510;11.934;2023-03-01T14:55:50;7.40;;;3.80;;
18532;SDS011;9396;51.510;11.934;2023-03-01T14:58:19;6.60;;;3.40;;
18532;SDS011;9396;51.510;11.934;2023-03-01T15:00:48;5.60;;;3.07;;
18532;SDS011;9396;51.510;11.934;2023-03-01T15:03:19;8.97;;;3.30;;
18532;SDS011;9396;51.510;11.934;2023-03-01T15:05:50;5.63;;;3.33;;
18532;SDS011;9396;51.510;11.934;2023-03-01T15:08:20;6.50;;;3.33;;
18532;SDS011;9396;51.510;11.934;2023-03-01T15:10:56;6.60;;;3.33;;
18532;SDS011;9396;51.510;11.934;2023-03-01T15:13:29;6.20;;;3.07;;